sensor_id;sensor_type;location;lat;lon;timestamp;P1;durP1;ratioP1;P2;durP2;ratioP2
40595;SDS011;26304;48.794;9.820;2023-03-03T00:00:00;6.28;;;5.70;;
40595;SDS011;26304;48.794;9.820;2023-03-03T00:05:44;6.30;;;5.80;;
40595;SDS011;26304;48.794;9.820;2023-03-03T00:11:26;6.20;;;5.70;;
40595;SDS011;26304;48.794;9.820;2023-03-03T00:17:12;6.45;;;5.95;;
40595;SDS011;26304;48.794;9.820;2023-03-03T00:29:01;5.95;;;5.50;;
40595;SDS011;26304;48.794;9.820;2023-03-03T00:35:18;6.45;;;5.95;;
40595;SDS011;26304;48.794;9.820;2023-03-03T00:41:09;5.72;;;5.32;;
40595;SDS011;26304;48.794;9.820;2023-03-03T00:46:57;6.03;;;5.53;;
40595;SDS011;26304;48.794;9.820;2023-03-03T00:52:59;5.80;;;5.40;;
40595;SDS011;26304;48.794;9.820;2023-03-03T00:58:43;5.78;;;5.28;;
40595;SDS011;26304;48.794;9.820;2023-03-03T01:04:27;5.72;;;5.22;;
40595;SDS011;26304;48.794;9.820;2023-03-03T01:10:11;5.07;;;4.68;;
40595;SDS011;26304;48.794;9.820;2023-03-03T01:15:54;6.10;;;5.60;;
40595;SDS011;26304;48.794;9.820;2023-03-03T01:21:37;6.13;;;5.60;;
40595;SDS011;26304;48.794;9.820;2023-03-03T01:27:21;6.03;;;5.53;;
40595;SDS011;26304;48.794;9.820;2023-03-03T01:33:03;5.60;;;5.20;;
40595;SDS011;26304;48.794;9.820;2023-03-03T01:38:46;5.35;;;4.95;;
40595;SDS011;26304;48.794;9.820;2023-03-03T01:44:29;5.40;;;5.00;;
40595;SDS011;26304;48.794;9.820;2023-03-03T01:50:13;5.68;;;5.18;;
40595;SDS011;26304;48.794;9.820;2023-03-03T01:56:01;5.13;;;4.72;;
40595;SDS011;26304;48.794;9.820;2023-03-03T02:01:47;5.28;;;4.88;;
40595;SDS011;26304;48.794;9.820;2023-03-03T02:07:30;6.07;;;5.60;;
40595;SDS011;26304;48.794;9.820;2023-03-03T02:13:13;5.05;;;4.65;;
40595;SDS011;26304;48.794;9.820;2023-03-03T02:18:57;5.50;;;5.00;;
40595;SDS011;26304;48.794;9.820;2023-03-03T02:24:41;5.22;;;4.82;;
40595;SDS011;26304;48.794;9.820;2023-03-03T02:30:26;5.07;;;4.65;;
40595;SDS011;26304;48.794;9.820;2023-03-03T02:36:12;5.28;;;4.88;;
40595;SDS011;26304;48.794;9.820;2023-03-03T02:41:57;4.75;;;4.35;;
40595;SDS011;26304;48.794;9.820;2023-03-03T02:47:49;5.00;;;4.60;;
40595;SDS011;26304;48.794;9.820;2023-03-03T02:53:31;5.07;;;4.68;;
40595;SDS011;26304;48.794;9.820;2023-03-03T02:59:14;4.65;;;4.30;;
40595;SDS011;26304;48.794;9.820;2023-03-03T03:04:58;5.20;;;4.80;;
40595;SDS011;26304;48.794;9.820;2023-03-03T03:10:40;4.78;;;4.47;;
40595;SDS011;26304;48.794;9.820;2023-03-03T03:16:23;4.55;;;4.25;;
40595;SDS011;26304;48.794;9.820;2023-03-03T03:22:06;4.80;;;4.40;;
40595;SDS011;26304;48.794;9.820;2023-03-03T03:27:49;4.47;;;4.18;;
40595;SDS011;26304;48.794;9.820;2023-03-03T03:33:31;3.70;;;3.40;;
40595;SDS011;26304;48.794;9.820;2023-03-03T03:39:16;3.45;;;3.15;;
40595;SDS011;26304;48.794;9.820;2023-03-03T03:44:58;3.20;;;3.00;;
40595;SDS011;26304;48.794;9.820;2023-03-03T03:50:41;2.47;;;2.28;;
40595;SDS011;26304;48.794;9.820;2023-03-03T03:56:25;2.45;;;2.35;;
40595;SDS011;26304;48.794;9.820;2023-03-03T04:02:07;2.45;;;2.22;;
40595;SDS011;26304;48.794;9.820;2023-03-03T04:07:49;1.90;;;1.80;;
40595;SDS011;26304;48.794;9.820;2023-03-03T04:13:33;1.70;;;1.60;;
40595;SDS011;26304;48.794;9.820;2023-03-03T04:19:16;1.48;;;1.38;;
40595;SDS011;26304;48.794;9.820;2023-03-03T04:24:58;1.40;;;1.30;;
40595;SDS011;26304;48.794;9.820;2023-03-03T04:30:46;1.30;;;1.20;;
40595;SDS011;26304;48.794;9.820;2023-03-03T04:36:28;1.20;;;1.10;;
40595;SDS011;26304;48.794;9.820;2023-03-03T04:42:11;0.98;;;0.98;;
40595;SDS011;26304;48.794;9.820;2023-03-03T04:47:55;1.05;;;1.05;;
40595;SDS011;26304;48.794;9.820;2023-03-03T04:53:37;1.00;;;1.00;;
40595;SDS011;26304;48.794;9.820;2023-03-03T04:59:20;1.02;;;1.00;;
40595;SDS011;26304;48.794;9.820;2023-03-03T05:05:04;1.05;;;1.05;;
40595;SDS011;26304;48.794;9.820;2023-03-03T05:10:50;0.82;;;0.82;;
40595;SDS011;26304;48.794;9.820;2023-03-03T05:16:32;0.80;;;0.80;;
40595;SDS011;26304;48.794;9.820;2023-03-03T05:22:17;0.70;;;0.70;;
40595;SDS011;26304;48.794;9.820;2023-03-03T05:27:59;0.80;;;0.80;;
40595;SDS011;26304;48.794;9.820;2023-03-03T05:33:41;1.70;;;1.60;;
40595;SDS011;26304;48.794;9.820;2023-03-03T05:39:25;1.42;;;1.33;;
40595;SDS011;26304;48.794;9.820;2023-03-03T05:45:08;1.58;;;1.48;;
40595;SDS011;26304;48.794;9.820;2023-03-03T05:50:51;1.83;;;1.20;;
40595;SDS011;26304;48.794;9.820;2023-03-03T05:56:35;2.58;;;1.90;;
40595;SDS011;26304;48.794;9.820;2023-03-03T06:02:17;1.90;;;1.67;;
40595;SDS011;26304;48.794;9.820;2023-03-03T06:07:59;5.28;;;2.70;;
40595;SDS011;26304;48.794;9.820;2023-03-03T06:13:43;2.65;;;2.20;;
40595;SDS011;26304;48.794;9.820;2023-03-03T06:19:26;3.67;;;2.28;;
40595;SDS011;26304;48.794;9.820;2023-03-03T06:25:08;5.68;;;2.75;;
40595;SDS011;26304;48.794;9.820;2023-03-03T06:30:53;4.35;;;2.78;;
40595;SDS011;26304;48.794;9.820;2023-03-03T06:36:36;2.85;;;2.13;;
40595;SDS011;26304;48.794;9.820;2023-03-03T06:42:18;3.47;;;2.13;;
40595;SDS011;26304;48.794;9.820;2023-03-03T06:48:02;3.83;;;2.55;;
40595;SDS011;26304;48.794;9.820;2023-03-03T06:53:45;3.67;;;2.35;;
40595;SDS011;26304;48.794;9.820;2023-03-03T06:59:29;3.58;;;2.75;;
40595;SDS011;26304;48.794;9.820;2023-03-03T07:05:14;3.53;;;2.55;;
40595;SDS011;26304;48.794;9.820;2023-03-03T07:11:00;3.72;;;3.08;;
40595;SDS011;26304;48.794;9.820;2023-03-03T07:16:55;3.70;;;2.60;;
40595;SDS011;26304;48.794;9.820;2023-03-03T07:22:41;5.57;;;3.38;;
40595;SDS011;26304;48.794;9.820;2023-03-03T07:28:23;3.95;;;3.28;;
40595;SDS011;26304;48.794;9.820;2023-03-03T07:34:13;4.03;;;3.22;;
40595;SDS011;26304;48.794;9.820;2023-03-03T07:40:03;4.63;;;3.45;;
40595;SDS011;26304;48.794;9.820;2023-03-03T07:46:20;4.07;;;3.40;;
40595;SDS011;26304;48.794;9.820;2023-03-03T07:52:16;4.35;;;3.10;;
40595;SDS011;26304;48.794;9.820;2023-03-03T07:58:16;3.38;;;3.08;;
40595;SDS011;26304;48.794;9.820;2023-03-03T08:04:04;5.05;;;3.92;;
40595;SDS011;26304;48.794;9.820;2023-03-03T08:09:55;4.15;;;3.67;;
40595;SDS011;26304;48.794;9.820;2023-03-03T08:15:41;4.93;;;3.72;;
40595;SDS011;26304;48.794;9.820;2023-03-03T08:21:25;7.47;;;4.00;;
40595;SDS011;26304;48.794;9.820;2023-03-03T08:27:08;4.43;;;3.70;;
40595;SDS011;26304;48.794;9.820;2023-03-03T08:32:52;5.22;;;4.00;;
40595;SDS011;26304;48.794;9.820;2023-03-03T08:38:35;10.82;;;7.18;;
40595;SDS011;26304;48.794;9.820;2023-03-03T08:44:18;9.40;;;5.68;;
40595;SDS011;26304;48.794;9.820;2023-03-03T08:50:02;8.02;;;4.95;;
40595;SDS011;26304;48.794;9.820;2023-03-03T08:55:44;6.75;;;4.45;;
40595;SDS011;26304;48.794;9.820;2023-03-03T09:01:27;7.30;;;4.97;;
40595;SDS011;26304;48.794;9.820;2023-03-03T09:07:11;6.15;;;4.80;;
40595;SDS011;26304;48.794;9.820;2023-03-03T09:12:54;7.22;;;4.95;;
40595;SDS011;26304;48.794;9.820;2023-03-03T09:18:38;6.85;;;5.15;;
40595;SDS011;26304;48.794;9.820;2023-03-03T09:24:24;7.63;;;4.70;;
40595;SDS011;26304;48.794;9.820;2023-03-03T09:30:11;6.22;;;4.45;;
40595;SDS011;26304;48.794;9.820;2023-03-03T09:36:13;5.38;;;4.50;;
40595;SDS011;26304;48.794;9.820;2023-03-03T09:42:27;6.63;;;5.10;;
40595;SDS011;26304;48.794;9.820;2023-03-03T09:48:35;5.35;;;4.57;;
40595;SDS011;26304;48.794;9.820;2023-03-03T09:54:32;5.47;;;4.32;;
40595;SDS011;26304;48.794;9.820;2023-03-03T10:00:28;5.22;;;4.60;;
40595;SDS011;26304;48.794;9.820;2023-03-03T10:06:21;4.25;;;3.85;;
40595;SDS011;26304;48.794;9.820;2023-03-03T10:12:09;4.72;;;4.10;;
40595;SDS011;26304;48.794;9.820;2023-03-03T10:18:01;5.03;;;4.53;;
40595;SDS011;26304;48.794;9.820;2023-03-03T10:23:56;4.07;;;3.67;;
40595;SDS011;26304;48.794;9.820;2023-03-03T10:29:53;4.15;;;3.75;;
40595;SDS011;26304;48.794;9.820;2023-03-03T10:35:47;4.72;;;3.78;;
40595;SDS011;26304;48.794;9.820;2023-03-03T10:41:47;4.35;;;3.95;;
40595;SDS011;26304;48.794;9.820;2023-03-03T10:47:44;5.07;;;4.25;;
40595;SDS011;26304;48.794;9.820;2023-03-03T10:53:42;5.43;;;3.88;;
40595;SDS011;26304;48.794;9.820;2023-03-03T10:59:42;4.60;;;4.07;;
40595;SDS011;26304;48.794;9.820;2023-03-03T11:05:37;4.28;;;3.88;;
40595;SDS011;26304;48.794;9.820;2023-03-03T11:11:27;4.78;;;4.38;;
40595;SDS011;26304;48.794;9.820;2023-03-03T11:17:19;5.07;;;3.90;;
40595;SDS011;26304;48.794;9.820;2023-03-03T11:23:11;4.43;;;3.88;;
40595;SDS011;26304;48.794;9.820;2023-03-03T11:29:14;4.55;;;4.13;;
40595;SDS011;26304;48.794;9.820;2023-03-03T11:35:21;4.50;;;3.97;;
40595;SDS011;26304;48.794;9.820;2023-03-03T11:41:07;4.90;;;4.50;;
40595;SDS011;26304;48.794;9.820;2023-03-03T11:46:57;5.22;;;4.78;;
40595;SDS011;26304;48.794;9.820;2023-03-03T11:52:43;3.90;;;3.35;;
40595;SDS011;26304;48.794;9.820;2023-03-03T11:58:33;3.97;;;3.60;;
40595;SDS011;26304;48.794;9.820;2023-03-03T12:04:24;4.07;;;3.65;;
40595;SDS011;26304;48.794;9.820;2023-03-03T12:10:14;4.20;;;3.78;;
40595;SDS011;26304;48.794;9.820;2023-03-03T12:16:05;4.53;;;4.00;;
40595;SDS011;26304;48.794;9.820;2023-03-03T12:22:04;4.93;;;4.43;;
40595;SDS011;26304;48.794;9.820;2023-03-03T12:27:57;4.55;;;3.72;;
40595;SDS011;26304;48.794;9.820;2023-03-03T12:33:51;4.45;;;4.05;;
40595;SDS011;26304;48.794;9.820;2023-03-03T12:39:42;5.10;;;4.60;;
40595;SDS011;26304;48.794;9.820;2023-03-03T12:45:33;5.72;;;4.45;;
40595;SDS011;26304;48.794;9.820;2023-03-03T12:51:26;6.57;;;4.43;;
40595;SDS011;26304;48.794;9.820;2023-03-03T12:57:20;5.97;;;4.45;;
40595;SDS011;26304;48.794;9.820;2023-03-03T13:03:16;5.03;;;4.45;;
40595;SDS011;26304;48.794;9.820;2023-03-03T13:09:10;4.53;;;4.13;;
40595;SDS011;26304;48.794;9.820;2023-03-03T13:15:06;5.55;;;4.32;;
40595;SDS011;26304;48.794;9.820;2023-03-03T13:20:57;4.60;;;4.20;;
40595;SDS011;26304;48.794;9.820;2023-03-03T13:26:47;4.25;;;3.85;;
40595;SDS011;26304;48.794;9.820;2023-03-03T13:32:36;5.13;;;4.35;;
40595;SDS011;26304;48.794;9.820;2023-03-03T13:38:25;5.00;;;4.47;;
40595;SDS011;26304;48.794;9.820;2023-03-03T13:44:13;4.43;;;4.03;;
40595;SDS011;26304;48.794;9.820;2023-03-03T13:50:05;4.53;;;4.13;;
40595;SDS011;26304;48.794;9.820;2023-03-03T13:55:59;5.38;;;4.20;;
40595;SDS011;26304;48.794;9.820;2023-03-03T14:01:53;4.55;;;4.15;;
40595;SDS011;26304;48.794;9.820;2023-03-03T14:07:44;4.82;;;4.30;;
40595;SDS011;26304;48.794;9.820;2023-03-03T14:13:34;4.05;;;3.75;;
40595;SDS011;26304;48.794;9.820;2023-03-03T14:19:26;4.82;;;4.32;;
40595;SDS011;26304;48.794;9.820;2023-03-03T14:25:14;12.73;;;11.60;;
40595;SDS011;26304;48.794;9.820;2023-03-03T14:30:57;16.27;;;14.57;;
40595;SDS011;26304;48.794;9.820;2023-03-03T14:36:51;17.25;;;15.65;;
40595;SDS011;26304;48.794;9.820;2023-03-03T14:42:45;17.25;;;15.57;;
40595;SDS011;26304;48.794;9.820;2023-03-03T14:48:29;15.27;;;13.88;;
40595;SDS011;26304;48.794;9.820;2023-03-03T14:54:18;14.10;;;12.68;;
40595;SDS011;26304;48.794;9.820;2023-03-03T15:00:08;12.68;;;11.38;;
40595;SDS011;26304;48.794;9.820;2023-03-03T15:06:11;11.23;;;10.07;;
40595;SDS011;26304;48.794;9.820;2023-03-03T15:11:54;11.25;;;10.18;;
40595;SDS011;26304;48.794;9.820;2023-03-03T15:17:42;9.52;;;8.63;;
40595;SDS011;26304;48.794;9.820;2023-03-03T15:23:37;9.95;;;9.05;;
40595;SDS011;26304;48.794;9.820;2023-03-03T15:29:29;10.45;;;9.50;;
40595;SDS011;26304;48.794;9.820;2023-03-03T15:35:21;8.88;;;8.07;;
40595;SDS011;26304;48.794;9.820;2023-03-03T15:41:18;8.15;;;7.45;;
40595;SDS011;26304;48.794;9.820;2023-03-03T15:47:12;7.82;;;7.15;;
40595;SDS011;26304;48.794;9.820;2023-03-03T15:53:16;6.47;;;5.97;;
40595;SDS011;26304;48.794;9.820;2023-03-03T15:59:22;6.65;;;6.15;;
40595;SDS011;26304;48.794;9.820;2023-03-03T16:05:14;6.78;;;6.18;;
40595;SDS011;26304;48.794;9.820;2023-03-03T16:11:03;7.20;;;6.60;;
40595;SDS011;26304;48.794;9.820;2023-03-03T16:16:50;7.15;;;6.45;;
40595;SDS011;26304;48.794;9.820;2023-03-03T16:22:40;6.85;;;6.25;;
40595;SDS011;26304;48.794;9.820;2023-03-03T16:34:57;6.68;;;6.18;;
40595;SDS011;26304;48.794;9.820;2023-03-03T16:40:44;6.75;;;6.25;;
40595;SDS011;26304;48.794;9.820;2023-03-03T16:46:34;8.02;;;7.15;;
40595;SDS011;26304;48.794;9.820;2023-03-03T16:52:23;7.93;;;7.00;;
40595;SDS011;26304;48.794;9.820;2023-03-03T16:58:20;8.65;;;7.90;;
40595;SDS011;26304;48.794;9.820;2023-03-03T17:04:13;7.93;;;7.22;;
40595;SDS011;26304;48.794;9.820;2023-03-03T17:10:15;9.10;;;8.20;;
40595;SDS011;26304;48.794;9.820;2023-03-03T17:16:07;7.93;;;7.20;;
40595;SDS011;26304;48.794;9.820;2023-03-03T17:22:01;9.48;;;8.55;;
40595;SDS011;26304;48.794;9.820;2023-03-03T17:27:57;7.60;;;6.90;;
40595;SDS011;26304;48.794;9.820;2023-03-03T17:33:55;7.32;;;6.72;;
40595;SDS011;26304;48.794;9.820;2023-03-03T17:39:59;7.07;;;6.47;;
40595;SDS011;26304;48.794;9.820;2023-03-03T17:45:54;7.47;;;6.78;;
40595;SDS011;26304;48.794;9.820;2023-03-03T17:57:56;7.20;;;6.60;;
40595;SDS011;26304;48.794;9.820;2023-03-03T18:04:15;7.32;;;6.63;;
40595;SDS011;26304;48.794;9.820;2023-03-03T18:16:23;8.57;;;7.38;;
40595;SDS011;26304;48.794;9.820;2023-03-03T18:22:21;7.97;;;7.20;;
40595;SDS011;26304;48.794;9.820;2023-03-03T18:28:16;7.53;;;6.90;;
40595;SDS011;26304;48.794;9.820;2023-03-03T18:34:06;7.22;;;6.53;;
40595;SDS011;26304;48.794;9.820;2023-03-03T18:40:13;7.70;;;7.00;;
40595;SDS011;26304;48.794;9.820;2023-03-03T18:46:09;9.57;;;8.68;;
40595;SDS011;26304;48.794;9.820;2023-03-03T18:52:15;8.73;;;7.50;;
40595;SDS011;26304;48.794;9.820;2023-03-03T19:04:19;12.00;;;9.68;;
40595;SDS011;26304;48.794;9.820;2023-03-03T19:10:11;8.50;;;7.75;;
40595;SDS011;26304;48.794;9.820;2023-03-03T19:16:31;8.35;;;7.43;;
40595;SDS011;26304;48.794;9.820;2023-03-03T19:22:21;7.57;;;6.88;;
40595;SDS011;26304;48.794;9.820;2023-03-03T19:28:23;8.13;;;7.32;;
40595;SDS011;26304;48.794;9.820;2023-03-03T19:34:19;7.63;;;6.93;;
40595;SDS011;26304;48.794;9.820;2023-03-03T19:40:10;7.43;;;6.85;;
40595;SDS011;26304;48.794;9.820;2023-03-03T19:46:09;6.63;;;6.03;;
40595;SDS011;26304;48.794;9.820;2023-03-03T19:52:05;12.20;;;11.00;;
40595;SDS011;26304;48.794;9.820;2023-03-03T19:58:03;12.57;;;10.68;;
40595;SDS011;26304;48.794;9.820;2023-03-03T20:10:23;16.75;;;15.25;;
40595;SDS011;26304;48.794;9.820;2023-03-03T20:16:22;23.30;;;21.00;;
40595;SDS011;26304;48.794;9.820;2023-03-03T20:22:19;23.98;;;21.88;;
40595;SDS011;26304;48.794;9.820;2023-03-03T20:28:14;37.35;;;29.58;;
40595;SDS011;26304;48.794;9.820;2023-03-03T20:34:18;66.45;;;48.53;;
40595;SDS011;26304;48.794;9.820;2023-03-03T20:40:12;45.10;;;35.90;;
40595;SDS011;26304;48.794;9.820;2023-03-03T20:46:09;26.85;;;23.92;;
40595;SDS011;26304;48.794;9.820;2023-03-03T20:51:59;27.58;;;24.70;;
40595;SDS011;26304;48.794;9.820;2023-03-03T20:57:51;26.05;;;23.75;;
40595;SDS011;26304;48.794;9.820;2023-03-03T21:03:41;22.92;;;20.83;;
40595;SDS011;26304;48.794;9.820;2023-03-03T21:09:27;22.02;;;20.05;;
40595;SDS011;26304;48.794;9.820;2023-03-03T21:15:21;22.40;;;20.30;;
40595;SDS011;26304;48.794;9.820;2023-03-03T21:21:05;23.30;;;21.20;;
40595;SDS011;26304;48.794;9.820;2023-03-03T21:26:50;21.65;;;19.65;;
40595;SDS011;26304;48.794;9.820;2023-03-03T21:32:39;20.08;;;18.17;;
40595;SDS011;26304;48.794;9.820;2023-03-03T21:38:30;20.02;;;18.08;;
40595;SDS011;26304;48.794;9.820;2023-03-03T21:44:27;18.58;;;16.67;;
40595;SDS011;26304;48.794;9.820;2023-03-03T21:50:12;20.60;;;18.70;;
40595;SDS011;26304;48.794;9.820;2023-03-03T21:55:54;19.35;;;17.55;;
40595;SDS011;26304;48.794;9.820;2023-03-03T22:01:37;19.88;;;18.02;;
40595;SDS011;26304;48.794;9.820;2023-03-03T22:07:20;18.95;;;17.17;;
40595;SDS011;26304;48.794;9.820;2023-03-03T22:13:03;18.52;;;16.83;;
40595;SDS011;26304;48.794;9.820;2023-03-03T22:18:45;22.92;;;16.20;;
40595;SDS011;26304;48.794;9.820;2023-03-03T22:24:29;16.63;;;15.07;;
40595;SDS011;26304;48.794;9.820;2023-03-03T22:30:12;16.67;;;15.18;;
40595;SDS011;26304;48.794;9.820;2023-03-03T22:35:55;17.13;;;15.43;;
40595;SDS011;26304;48.794;9.820;2023-03-03T22:41:39;17.38;;;15.77;;
40595;SDS011;26304;48.794;9.820;2023-03-03T22:47:21;16.02;;;14.55;;
40595;SDS011;26304;48.794;9.820;2023-03-03T22:53:03;16.05;;;14.57;;
40595;SDS011;26304;48.794;9.820;2023-03-03T22:58:47;16.10;;;14.50;;
40595;SDS011;26304;48.794;9.820;2023-03-03T23:04:30;15.15;;;13.75;;
40595;SDS011;26304;48.794;9.820;2023-03-03T23:10:13;15.70;;;14.10;;
40595;SDS011;26304;48.794;9.820;2023-03-03T23:15:57;15.18;;;13.77;;
40595;SDS011;26304;48.794;9.820;2023-03-03T23:21:40;15.23;;;13.80;;
40595;SDS011;26304;48.794;9.820;2023-03-03T23:27:22;14.90;;;13.50;;
40595;SDS011;26304;48.794;9.820;2023-03-03T23:33:06;16.48;;;14.90;;
40595;SDS011;26304;48.794;9.820;2023-03-03T23:38:48;15.52;;;14.02;;
40595;SDS011;26304;48.794;9.820;2023-03-03T23:44:31;15.52;;;14.02;;
40595;SDS011;26304;48.794;9.820;2023-03-03T23:50:15;16.15;;;14.68;;
40595;SDS011;26304;48.794;9.820;2023-03-03T23:55:57;15.73;;;14.18;;
